Time;durP1;ratioP1;P1;durP2;ratioP2;P2;SDS_P1;SDS_P2;PMS_P1;PMS_P2;Temp;Humidity;BMP_temperature;BMP_pressure;BME280_temperature;BME280_humidity;BME280_pressure;Samples;Min_cycle;Max_cycle;Signal;HPM_P1;HPM_P2
2021/10/11 00:02:09;;;;;;;20.90;13.02;;;5.20;74.30;;;;;;5056378;28;20124;-66
2021/10/11 00:04:35;;;;;;;19.60;12.95;;;5.20;74.40;;;;;;5056399;28;20116;-67
2021/10/11 00:07:01;;;;;;;20.10;12.73;;;5.20;74.50;;;;;;5054756;28;20045;-67
2021/10/11 00:09:26;;;;;;;17.15;11.88;;;5.20;74.60;;;;;;5055672;28;20041;-67
2021/10/11 00:11:52;;;;;;;19.58;12.25;;;5.20;74.40;;;;;;5055201;28;20051;-65
2021/10/11 00:14:18;;;;;;;21.33;12.95;;;5.10;74.30;;;;;;5057869;28;20435;-67
2021/10/11 00:16:43;;;;;;;22.55;13.48;;;5.10;74.40;;;;;;5056166;28;20448;-67
2021/10/11 00:19:09;;;;;;;18.33;12.65;;;5.10;74.20;;;;;;5059205;28;20044;-67
2021/10/11 00:21:35;;;;;;;19.92;12.43;;;5.10;74.10;;;;;;5058034;28;20029;-67
2021/10/11 00:24:00;;;;;;;20.58;12.25;;;5.10;74.20;;;;;;5057896;28;20033;-66
2021/10/11 00:26:26;;;;;;;22.35;12.95;;;5.00;74.20;;;;;;5056420;28;20108;-67
2021/10/11 00:28:52;;;;;;;20.42;12.35;;;5.00;74.10;;;;;;5058006;28;20067;-67
2021/10/11 00:31:18;;;;;;;20.23;12.68;;;5.00;73.80;;;;;;5056559;28;20088;-67
2021/10/11 00:33:43;;;;;;;20.38;12.43;;;5.00;73.80;;;;;;5057854;28;20041;-68
2021/10/11 00:36:09;;;;;;;21.58;12.52;;;4.90;73.90;;;;;;5056810;28;20029;-67
2021/10/11 00:38:34;;;;;;;19.77;12.50;;;4.90;74.00;;;;;;5057385;28;20083;-66
2021/10/11 00:41:00;;;;;;;20.80;13.13;;;4.80;74.00;;;;;;5058353;28;20029;-66
2021/10/11 00:43:27;;;;;;;21.13;13.05;;;4.80;74.00;;;;;;5057608;28;20068;-67
2021/10/11 00:45:53;;;;;;;22.33;13.15;;;4.70;74.10;;;;;;5055920;28;20033;-67
2021/10/11 00:48:18;;;;;;;21.35;13.00;;;4.70;75.10;;;;;;5056194;28;20071;-67
2021/10/11 00:50:44;;;;;;;21.40;13.52;;;4.60;74.40;;;;;;5056595;28;20677;-67
2021/10/11 00:53:11;;;;;;;24.80;14.52;;;4.60;74.60;;;;;;5057917;28;20113;-67
2021/10/11 00:55:37;;;;;;;22.20;14.25;;;4.50;75.00;;;;;;5050367;28;22564;-67
2021/10/11 00:58:02;;;;;;;24.40;13.75;;;4.50;75.30;;;;;;5053893;28;20033;-67
2021/10/11 01:00:28;;;;;;;20.70;13.52;;;4.50;75.50;;;;;;5049090;28;20044;-66
2021/10/11 01:02:54;;;;;;;19.90;12.63;;;4.40;75.40;;;;;;5055089;28;20512;-66
2021/10/11 01:05:20;;;;;;;20.58;12.90;;;4.40;75.40;;;;;;5051879;28;20040;-66
2021/10/11 01:07:46;;;;;;;24.95;13.43;;;4.40;75.70;;;;;;5051530;28;20181;-67
2021/10/11 01:10:12;;;;;;;21.85;13.48;;;4.40;75.70;;;;;;5050547;28;20055;-67
2021/10/11 01:12:37;;;;;;;22.05;13.75;;;4.40;75.60;;;;;;5048823;28;20041;-67
2021/10/11 01:15:04;;;;;;;19.02;12.65;;;4.40;75.40;;;;;;5052339;28;20527;-65
2021/10/11 01:17:29;;;;;;;20.67;12.85;;;4.40;75.40;;;;;;5053092;28;20048;-65
2021/10/11 01:19:56;;;;;;;18.55;12.48;;;4.40;75.40;;;;;;5054159;28;20033;-67
2021/10/11 01:22:36;;;;;;;20.02;12.00;;;4.40;75.40;;;;;;5050337;28;20124;-67
2021/10/11 01:25:03;;;;;;;18.70;11.77;;;4.40;75.50;;;;;;5053702;28;20461;-66
2021/10/11 01:27:29;;;;;;;20.88;12.57;;;4.40;75.30;;;;;;5050904;28;20052;-66
2021/10/11 01:29:56;;;;;;;21.38;13.35;;;4.40;75.50;;;;;;5051487;28;20075;-67
2021/10/11 01:32:22;;;;;;;18.75;11.88;;;4.50;75.50;;;;;;5052642;28;20029;-67
2021/10/11 01:34:48;;;;;;;20.85;11.90;;;4.40;75.00;;;;;;5052198;28;20553;-66
2021/10/11 01:37:14;;;;;;;19.73;12.43;;;4.50;75.00;;;;;;5046006;28;20037;-67
2021/10/11 01:39:40;;;;;;;21.48;13.00;;;4.50;75.00;;;;;;5056176;28;20044;-67
2021/10/11 01:42:05;;;;;;;19.98;12.88;;;4.50;75.10;;;;;;5049837;28;20029;-66
2021/10/11 01:44:31;;;;;;;19.75;12.68;;;4.50;75.20;;;;;;5053147;28;20029;-67
2021/10/11 01:46:57;;;;;;;23.38;12.82;;;4.50;75.30;;;;;;5051321;28;20051;-67
2021/10/11 01:49:22;;;;;;;20.27;12.75;;;4.50;75.30;;;;;;5046658;28;20039;-67
2021/10/11 01:51:48;;;;;;;20.83;13.20;;;4.50;75.30;;;;;;5049039;28;20531;-67
2021/10/11 01:54:13;;;;;;;20.90;11.95;;;4.50;75.90;;;;;;5051860;28;20037;-67
2021/10/11 01:56:39;;;;;;;20.75;13.23;;;4.50;75.00;;;;;;5047177;28;20032;-66
2021/10/11 01:59:05;;;;;;;19.70;11.80;;;4.40;75.70;;;;;;5051967;28;20631;-67
2021/10/11 02:01:30;;;;;;;20.35;12.80;;;4.40;75.00;;;;;;5050269;28;20039;-67
2021/10/11 02:03:56;;;;;;;42.75;14.43;;;4.40;75.10;;;;;;5050144;28;20045;-67
2021/10/11 02:06:22;;;;;;;22.73;13.48;;;4.40;75.50;;;;;;5048268;28;20037;-66
2021/10/11 02:08:48;;;;;;;22.15;12.93;;;4.30;75.50;;;;;;5051411;28;20040;-67
2021/10/11 02:11:14;;;;;;;21.05;13.00;;;4.30;75.70;;;;;;5050314;28;20044;-67
2021/10/11 02:13:40;;;;;;;22.15;12.93;;;4.20;75.80;;;;;;5047283;28;20503;-67
2021/10/11 02:16:06;;;;;;;24.08;13.45;;;4.20;75.90;;;;;;5042977;28;20040;-66
2021/10/11 02:18:31;;;;;;;20.60;12.95;;;4.20;75.90;;;;;;5045324;28;21829;-66
2021/10/11 02:20:57;;;;;;;20.17;12.20;;;4.20;75.90;;;;;;5048604;28;20588;-67
2021/10/11 02:23:22;;;;;;;25.75;13.68;;;4.20;75.90;;;;;;5048676;28;20033;-67
2021/10/11 02:25:48;;;;;;;22.05;13.50;;;4.20;75.90;;;;;;5049629;28;20036;-66
2021/10/11 02:28:14;;;;;;;20.83;13.27;;;4.20;75.90;;;;;;5048457;28;20033;-66
2021/10/11 02:30:39;;;;;;;20.02;12.88;;;4.20;75.70;;;;;;5047217;28;20925;-67
2021/10/11 02:33:05;;;;;;;20.88;12.32;;;4.20;75.30;;;;;;5043910;28;20052;-66
2021/10/11 02:35:31;;;;;;;18.38;12.25;;;4.20;75.20;;;;;;5048888;28;20051;-67
2021/10/11 02:37:56;;;;;;;22.98;13.32;;;4.20;75.20;;;;;;5051616;28;20029;-67
2021/10/11 02:40:25;;;;;;;19.55;12.88;;;4.10;75.20;;;;;;5052173;28;20032;-67
2021/10/11 02:42:50;;;;;;;22.65;13.00;;;4.10;75.40;;;;;;5048281;28;20028;-67
2021/10/11 02:45:16;;;;;;;19.63;12.23;;;4.10;75.60;;;;;;5054620;28;20090;-67
2021/10/11 02:47:42;;;;;;;22.85;13.20;;;4.10;75.60;;;;;;5045292;28;20037;-67
2021/10/11 02:50:08;;;;;;;21.45;13.25;;;4.10;75.70;;;;;;5049939;28;20473;-67
2021/10/11 02:52:33;;;;;;;22.08;12.95;;;4.10;75.40;;;;;;5048576;28;20037;-67
2021/10/11 02:55:01;;;;;;;19.80;12.38;;;4.10;75.20;;;;;;5048710;28;20530;-67
2021/10/11 02:57:26;;;;;;;22.23;13.20;;;4.10;75.20;;;;;;5052988;28;20432;-67
2021/10/11 02:59:52;;;;;;;21.85;13.60;;;4.10;75.30;;;;;;5055256;28;20024;-67
2021/10/11 03:02:18;;;;;;;21.63;12.40;;;4.10;75.70;;;;;;5048907;28;20526;-67
2021/10/11 03:04:44;;;;;;;24.40;13.23;;;4.10;75.70;;;;;;5052928;28;20116;-67
2021/10/11 03:07:10;;;;;;;19.67;12.05;;;4.10;75.80;;;;;;5047441;28;20128;-67
2021/10/11 03:09:36;;;;;;;20.65;12.40;;;4.10;75.90;;;;;;5050809;28;20029;-67
2021/10/11 03:12:02;;;;;;;20.98;11.77;;;4.10;75.80;;;;;;5046494;28;20029;-67
2021/10/11 03:14:27;;;;;;;20.38;12.38;;;4.10;75.70;;;;;;5053287;28;20025;-67
2021/10/11 03:16:53;;;;;;;18.23;12.00;;;4.10;75.50;;;;;;5053226;28;20043;-67
2021/10/11 03:19:19;;;;;;;20.80;12.00;;;4.10;75.40;;;;;;5044902;28;20136;-67
2021/10/11 03:21:45;;;;;;;18.92;12.35;;;4.10;75.30;;;;;;5047857;28;20041;-65
2021/10/11 03:24:10;;;;;;;16.25;11.52;;;4.10;75.30;;;;;;5048994;28;20396;-67
2021/10/11 03:26:36;;;;;;;17.65;11.50;;;4.10;75.40;;;;;;5052340;28;20041;-67
2021/10/11 03:29:01;;;;;;;18.38;11.63;;;4.10;75.40;;;;;;5050386;28;20128;-67
2021/10/11 03:31:27;;;;;;;18.35;11.43;;;4.10;75.50;;;;;;5049290;28;20730;-67
2021/10/11 03:33:53;;;;;;;18.15;11.40;;;4.10;75.40;;;;;;5049162;28;20148;-67
2021/10/11 03:36:18;;;;;;;16.95;11.27;;;4.10;75.30;;;;;;5053646;28;20037;-65
2021/10/11 03:38:44;;;;;;;16.83;11.20;;;4.10;75.40;;;;;;5051532;28;20040;-67
2021/10/11 03:41:10;;;;;;;16.42;11.40;;;4.10;75.50;;;;;;5050935;28;20540;-67
2021/10/11 03:44:00;;;;;;;16.50;11.15;;;4.10;75.30;;;;;;6015973;23;21135;-64
2021/10/11 03:46:26;;;;;;;15.15;10.77;;;4.10;75.40;;;;;;4956614;28;20043;-67
2021/10/11 03:48:52;;;;;;;16.38;11.23;;;4.00;75.20;;;;;;4963020;28;20034;-66
2021/10/11 03:51:21;;;;;;;15.02;11.27;;;4.00;75.20;;;;;;4958737;28;20090;-66
2021/10/11 03:53:47;;;;;;;18.92;11.50;;;4.00;76.30;;;;;;4962253;28;20644;-66
2021/10/11 03:56:15;;;;;;;14.70;10.77;;;4.00;75.40;;;;;;4957576;28;20124;-64
2021/10/11 03:58:40;;;;;;;19.02;11.85;;;3.90;75.30;;;;;;4963022;28;20121;-67
2021/10/11 04:01:06;;;;;;;19.38;12.07;;;3.90;75.30;;;;;;4961482;28;20110;-65
2021/10/11 04:03:32;;;;;;;18.67;11.77;;;3.90;75.30;;;;;;4959203;28;20093;-67
2021/10/11 04:05:58;;;;;;;21.40;12.73;;;3.90;75.30;;;;;;4957068;28;20129;-66
2021/10/11 04:08:32;;;;;;;23.50;14.15;;;3.90;75.40;;;;;;4954967;28;22391;-67
2021/10/11 04:13:35;;;;;;;18.58;12.27;;;3.90;75.30;;;;;;4959459;28;20502;-65
2021/10/11 04:16:00;;;;;;;19.05;12.25;;;3.80;75.30;;;;;;4960969;28;20066;-66
2021/10/11 04:18:26;;;;;;;17.83;12.02;;;3.80;75.20;;;;;;4957834;28;20023;-67
2021/10/11 04:20:52;;;;;;;18.40;12.32;;;3.80;75.20;;;;;;4960507;28;20039;-67
2021/10/11 04:23:18;;;;;;;17.52;12.07;;;3.70;75.20;;;;;;4959613;28;20043;-66
2021/10/11 04:25:43;;;;;;;19.52;11.73;;;3.70;75.20;;;;;;4958709;28;20549;-67
2021/10/11 04:28:11;;;;;;;18.58;12.27;;;3.70;75.30;;;;;;4958525;28;20449;-66
2021/10/11 04:30:37;;;;;;;16.75;11.43;;;3.70;75.50;;;;;;4958689;28;20054;-66
2021/10/11 04:33:03;;;;;;;18.58;12.13;;;3.60;75.50;;;;;;4958310;28;20035;-67
2021/10/11 04:35:28;;;;;;;18.83;11.88;;;3.60;75.70;;;;;;4958453;28;20117;-67
2021/10/11 04:37:54;;;;;;;21.95;13.77;;;3.60;75.80;;;;;;4961076;28;20395;-67
2021/10/11 04:40:20;;;;;;;20.52;12.70;;;3.60;75.70;;;;;;4960861;28;20059;-67
2021/10/11 04:42:46;;;;;;;23.55;13.63;;;3.60;75.60;;;;;;4958961;28;20046;-67
2021/10/11 04:45:12;;;;;;;20.00;13.25;;;3.60;75.70;;;;;;4966861;28;20035;-66
2021/10/11 04:47:38;;;;;;;20.05;12.98;;;3.70;76.70;;;;;;4960882;28;20458;-67
2021/10/11 04:50:05;;;;;;;19.45;12.95;;;3.70;75.90;;;;;;4960447;28;20023;-66
2021/10/11 04:52:31;;;;;;;19.60;13.15;;;3.70;75.90;;;;;;4958431;28;20055;-67
2021/10/11 04:54:56;;;;;;;19.73;13.18;;;3.70;76.00;;;;;;4960081;28;20538;-66
2021/10/11 04:57:22;;;;;;;19.38;12.73;;;3.70;75.90;;;;;;4971224;28;20110;-66
2021/10/11 04:59:48;;;;;;;21.92;12.60;;;3.70;75.80;;;;;;4961032;28;20067;-67
2021/10/11 05:02:13;;;;;;;24.33;11.57;;;3.70;75.80;;;;;;4958783;28;20110;-66
2021/10/11 05:04:39;;;;;;;21.88;11.30;;;3.70;75.90;;;;;;4961188;28;20102;-67
2021/10/11 05:07:05;;;;;;;18.77;10.93;;;3.80;76.10;;;;;;4959978;28;20540;-67
2021/10/11 05:09:30;;;;;;;21.08;10.38;;;3.70;76.10;;;;;;4961143;28;20035;-66
2021/10/11 05:11:57;;;;;;;19.30;10.38;;;3.70;76.20;;;;;;4956597;28;20054;-66
2021/10/11 05:14:22;;;;;;;12.90;9.50;;;3.70;76.10;;;;;;4960315;28;20110;-67
2021/10/11 05:16:48;;;;;;;20.20;10.38;;;3.70;76.30;;;;;;4960326;28;20565;-65
2021/10/11 05:19:14;;;;;;;15.80;10.05;;;3.70;76.40;;;;;;4962417;28;20043;-66
2021/10/11 05:21:40;;;;;;;21.42;10.57;;;3.70;76.60;;;;;;4959921;28;20469;-66
2021/10/11 05:24:06;;;;;;;20.65;10.05;;;3.70;76.60;;;;;;4962222;28;20039;-66
2021/10/11 05:26:31;;;;;;;18.73;11.90;;;3.70;76.60;;;;;;4959519;28;20036;-66
2021/10/11 05:28:58;;;;;;;23.40;12.48;;;3.70;76.80;;;;;;4960589;28;20042;-68
2021/10/11 05:31:25;;;;;;;23.60;13.30;;;3.70;77.10;;;;;;4957739;28;20463;-66
2021/10/11 05:33:50;;;;;;;31.35;15.00;;;3.70;77.10;;;;;;4960429;28;20143;-66
2021/10/11 05:36:16;;;;;;;25.67;15.00;;;3.70;77.10;;;;;;4964970;28;20398;-69
2021/10/11 05:38:42;;;;;;;22.33;13.70;;;3.70;77.30;;;;;;4959470;28;20063;-66
2021/10/11 05:41:08;;;;;;;38.47;13.35;;;3.70;77.40;;;;;;4958915;28;20125;-67
2021/10/11 05:43:33;;;;;;;32.50;12.48;;;3.70;77.70;;;;;;4959780;28;20110;-66
2021/10/11 05:45:59;;;;;;;21.17;12.52;;;3.80;77.70;;;;;;4960398;28;20056;-66
2021/10/11 05:48:24;;;;;;;20.52;12.57;;;3.80;77.90;;;;;;4958965;28;20058;-67
2021/10/11 05:50:50;;;;;;;42.13;13.05;;;3.80;78.00;;;;;;4958004;28;20109;-67
2021/10/11 05:53:16;;;;;;;31.58;13.55;;;3.80;78.10;;;;;;4959152;28;20038;-67
2021/10/11 05:55:41;;;;;;;24.23;12.85;;;3.80;78.30;;;;;;4960128;28;20035;-66
2021/10/11 05:58:07;;;;;;;21.30;13.30;;;3.80;78.60;;;;;;4960571;28;20054;-67
2021/10/11 06:00:32;;;;;;;22.30;13.27;;;3.90;79.00;;;;;;4959791;28;20498;-67
2021/10/11 06:02:58;;;;;;;33.95;13.80;;;3.90;79.00;;;;;;4961340;28;20031;-67
2021/10/11 06:05:24;;;;;;;76.10;17.63;;;3.90;79.10;;;;;;4960320;28;20046;-67
2021/10/11 06:07:49;;;;;;;27.75;15.88;;;4.00;79.20;;;;;;4959959;28;20039;-66
2021/10/11 06:10:15;;;;;;;39.65;21.05;;;4.00;79.20;;;;;;4963704;28;20425;-67
2021/10/11 06:12:42;;;;;;;103.32;17.23;;;4.10;79.20;;;;;;4956540;28;20043;-67
2021/10/11 06:15:08;;;;;;;43.22;19.38;;;4.10;79.20;;;;;;4959246;28;20534;-67
2021/10/11 06:17:34;;;;;;;32.08;19.00;;;4.10;79.10;;;;;;4960316;28;20058;-66
2021/10/11 06:20:00;;;;;;;27.88;15.80;;;4.20;79.20;;;;;;4961081;28;20391;-67
2021/10/11 06:22:25;;;;;;;26.92;16.40;;;4.20;79.30;;;;;;4959526;28;20031;-67
2021/10/11 06:24:51;;;;;;;26.38;15.18;;;4.30;79.30;;;;;;4958936;28;20035;-66
2021/10/11 06:27:17;;;;;;;27.48;16.45;;;4.30;79.30;;;;;;4961312;28;20031;-66
2021/10/11 06:29:42;;;;;;;25.23;15.98;;;4.30;79.20;;;;;;4958543;28;20067;-67
2021/10/11 06:32:08;;;;;;;22.33;14.65;;;4.40;79.10;;;;;;4959062;28;20034;-67
2021/10/11 06:34:34;;;;;;;23.95;14.52;;;4.40;80.00;;;;;;4959692;28;20034;-66
2021/10/11 06:36:59;;;;;;;21.90;14.73;;;4.40;79.20;;;;;;4959682;28;20062;-66
2021/10/11 06:39:25;;;;;;;22.73;13.52;;;4.40;79.00;;;;;;4959286;28;20456;-67
2021/10/11 06:41:50;;;;;;;22.98;13.45;;;4.40;78.40;;;;;;4957886;28;20070;-66
2021/10/11 06:44:17;;;;;;;21.58;12.73;;;4.30;78.00;;;;;;4957880;28;20079;-66
2021/10/11 06:46:42;;;;;;;19.35;12.73;;;4.30;78.10;;;;;;4957996;28;20478;-67
2021/10/11 06:49:08;;;;;;;21.45;13.38;;;4.20;78.30;;;;;;4965851;28;20027;-67
2021/10/11 06:51:33;;;;;;;23.20;13.05;;;4.10;78.50;;;;;;4958982;28;20042;-67
2021/10/11 06:53:59;;;;;;;19.30;12.27;;;4.10;78.80;;;;;;4959447;28;20047;-66
2021/10/11 06:56:25;;;;;;;21.35;12.13;;;4.10;79.00;;;;;;4959179;28;20495;-67
2021/10/11 06:58:50;;;;;;;21.48;11.35;;;4.10;79.00;;;;;;4958929;28;20054;-66
2021/10/11 07:01:16;;;;;;;20.55;11.77;;;4.10;79.00;;;;;;4958705;28;20124;-67
2021/10/11 07:03:41;;;;;;;18.20;11.63;;;4.10;79.00;;;;;;4959219;28;20031;-66
2021/10/11 07:06:13;;;;;;;18.52;11.80;;;4.10;79.20;;;;;;4962874;28;20129;-67
2021/10/11 07:08:39;;;;;;;15.52;10.75;;;4.20;79.30;;;;;;4963199;28;20054;-67
2021/10/11 07:11:08;;;;;;;18.08;11.15;;;4.10;79.20;;;;;;4958521;28;20031;-66
2021/10/11 07:13:34;;;;;;;18.48;11.65;;;4.10;79.60;;;;;;4961510;28;20035;-66
2021/10/11 07:16:03;;;;;;;18.00;11.50;;;4.10;79.80;;;;;;4961314;28;20126;-66
2021/10/11 07:18:29;;;;;;;20.00;12.68;;;4.10;79.90;;;;;;4967136;28;20031;-66
2021/10/11 07:20:55;;;;;;;25.83;12.85;;;4.10;80.00;;;;;;4962937;28;20031;-66
2021/10/11 07:23:20;;;;;;;56.88;14.63;;;4.20;80.20;;;;;;4963451;28;20438;-66
2021/10/11 07:25:46;;;;;;;45.47;13.80;;;4.20;80.90;;;;;;4962876;28;20032;-66
2021/10/11 07:28:12;;;;;;;26.60;13.82;;;4.20;80.70;;;;;;4961758;28;20189;-66
2021/10/11 07:30:38;;;;;;;63.65;14.82;;;4.30;80.90;;;;;;4961732;28;20093;-66
2021/10/11 07:33:05;;;;;;;54.58;15.23;;;4.30;81.30;;;;;;4961828;28;20037;-66
2021/10/11 07:35:31;;;;;;;71.60;15.82;;;4.40;81.40;;;;;;4962936;28;20035;-66
2021/10/11 07:37:59;;;;;;;49.15;13.93;;;4.40;81.40;;;;;;4961136;28;20038;-67
2021/10/11 07:40:24;;;;;;;40.92;15.27;;;4.40;81.10;;;;;;4961680;28;20040;-66
2021/10/11 07:42:50;;;;;;;52.65;14.38;;;4.40;81.30;;;;;;4961249;28;20046;-66
2021/10/11 07:45:16;;;;;;;29.60;13.05;;;4.50;81.60;;;;;;4965988;28;20437;-67
2021/10/11 07:47:41;;;;;;;24.40;13.70;;;4.50;81.60;;;;;;4960655;28;20632;-66
2021/10/11 07:50:07;;;;;;;23.73;12.98;;;4.60;81.60;;;;;;4962706;28;20074;-66
2021/10/11 07:52:33;;;;;;;25.38;14.13;;;4.70;81.70;;;;;;4960165;28;20031;-67
2021/10/11 07:54:59;;;;;;;43.92;13.65;;;4.80;81.70;;;;;;4960144;28;20118;-66
2021/10/11 07:57:24;;;;;;;28.63;13.18;;;4.80;81.70;;;;;;4960447;28;20510;-67
2021/10/11 07:59:50;;;;;;;26.38;13.52;;;4.90;81.90;;;;;;4962773;28;20148;-67
2021/10/11 08:02:16;;;;;;;21.02;12.60;;;4.90;82.00;;;;;;4956119;28;20502;-67
2021/10/11 08:04:41;;;;;;;22.13;13.82;;;5.10;82.10;;;;;;4960806;28;20035;-67
2021/10/11 08:07:07;;;;;;;26.70;13.73;;;5.10;82.20;;;;;;4960685;28;20038;-67
2021/10/11 08:09:33;;;;;;;23.30;13.20;;;5.20;82.30;;;;;;4962156;28;20039;-67
2021/10/11 08:11:58;;;;;;;24.63;13.23;;;5.30;82.30;;;;;;4960607;28;20050;-67
2021/10/11 08:14:24;;;;;;;20.48;13.57;;;5.40;82.40;;;;;;4961110;28;20126;-66
2021/10/11 08:16:50;;;;;;;23.08;13.02;;;5.40;82.50;;;;;;4961880;28;20058;-67
2021/10/11 08:19:15;;;;;;;19.30;13.10;;;5.60;82.50;;;;;;4960999;28;20042;-67
2021/10/11 08:21:41;;;;;;;24.42;12.70;;;5.60;82.60;;;;;;4962352;28;20038;-67
2021/10/11 08:24:07;;;;;;;20.48;12.63;;;5.70;82.50;;;;;;4961494;28;20174;-66
2021/10/11 08:26:34;;;;;;;19.20;12.27;;;5.80;82.50;;;;;;4959169;28;21493;-67
2021/10/11 08:29:02;;;;;;;20.45;12.27;;;5.90;82.60;;;;;;4962388;28;20433;-67
2021/10/11 08:31:28;;;;;;;22.23;13.38;;;5.90;82.70;;;;;;4960662;28;20628;-67
2021/10/11 08:33:53;;;;;;;19.95;13.30;;;6.00;82.80;;;;;;4960634;28;20063;-67
2021/10/11 08:36:19;;;;;;;21.38;12.93;;;6.10;82.80;;;;;;4962209;28;20099;-67
2021/10/11 08:38:45;;;;;;;20.98;12.73;;;6.20;82.80;;;;;;4962492;28;20038;-67
2021/10/11 08:41:11;;;;;;;17.17;11.95;;;6.30;82.90;;;;;;4960433;28;20035;-67
2021/10/11 08:43:38;;;;;;;16.00;11.98;;;6.50;82.90;;;;;;4959820;28;20043;-67
2021/10/11 08:46:05;;;;;;;18.02;12.68;;;6.50;82.80;;;;;;4960578;28;20043;-67
2021/10/11 08:48:32;;;;;;;16.70;11.85;;;6.60;82.80;;;;;;4958924;28;20062;-67
2021/10/11 08:50:58;;;;;;;15.23;11.10;;;6.70;82.70;;;;;;4960648;28;20039;-67
2021/10/11 08:53:25;;;;;;;16.92;12.23;;;6.80;82.60;;;;;;4966079;28;20091;-67
2021/10/11 08:55:50;;;;;;;16.45;12.55;;;6.90;82.70;;;;;;4961142;28;20307;-67
2021/10/11 08:58:16;;;;;;;17.08;12.38;;;7.00;82.70;;;;;;4960332;28;20031;-67
2021/10/11 09:00:42;;;;;;;20.15;12.73;;;7.10;82.50;;;;;;4962047;28;20058;-65
2021/10/11 09:03:09;;;;;;;18.45;13.05;;;7.20;82.40;;;;;;4957866;28;20557;-67
2021/10/11 09:05:41;;;;;;;20.25;13.45;;;7.30;82.20;;;;;;4959730;28;20061;-67
2021/10/11 09:08:09;;;;;;;18.40;13.23;;;7.30;82.30;;;;;;4961503;28;20039;-67
2021/10/11 09:10:52;;;;;;;22.42;14.23;;;7.40;82.20;;;;;;4959103;28;20723;-67
2021/10/11 09:13:20;;;;;;;20.30;13.68;;;7.50;82.90;;;;;;4959404;28;20043;-67
2021/10/11 09:15:50;;;;;;;20.60;14.02;;;7.60;82.20;;;;;;4959810;28;20039;-67
2021/10/11 09:18:27;;;;;;;19.95;14.23;;;7.70;81.90;;;;;;4958719;28;20059;-67
2021/10/11 09:20:53;;;;;;;19.67;13.80;;;7.80;81.90;;;;;;4959971;28;20031;-67
2021/10/11 09:23:19;;;;;;;19.40;14.07;;;7.90;81.60;;;;;;4960411;28;20038;-67
2021/10/11 09:25:45;;;;;;;24.10;14.35;;;8.00;81.50;;;;;;4959580;28;20035;-67
2021/10/11 09:28:16;;;;;;;21.63;14.70;;;8.00;81.30;;;;;;4960024;28;20042;-67
2021/10/11 09:30:45;;;;;;;22.17;14.98;;;8.10;81.20;;;;;;4959071;28;20031;-67
2021/10/11 09:33:23;;;;;;;22.80;15.23;;;8.20;81.20;;;;;;4959095;28;20110;-66
2021/10/11 09:35:51;;;;;;;22.83;15.60;;;8.30;81.30;;;;;;4957792;28;20039;-66
2021/10/11 09:38:28;;;;;;;24.70;15.82;;;8.40;81.00;;;;;;4959935;28;20566;-67
2021/10/11 09:40:56;;;;;;;21.92;14.85;;;8.50;81.10;;;;;;4958142;28;20054;-67
2021/10/11 09:43:24;;;;;;;22.55;14.32;;;8.60;81.00;;;;;;4958795;28;20038;-66
2021/10/11 09:45:51;;;;;;;22.48;15.13;;;8.70;81.00;;;;;;4959511;28;20036;-66
2021/10/11 09:48:17;;;;;;;19.88;14.95;;;8.80;81.00;;;;;;4958096;28;20766;-67
2021/10/11 09:50:43;;;;;;;23.20;15.38;;;8.90;80.80;;;;;;4958063;28;20053;-66
2021/10/11 09:53:11;;;;;;;23.05;14.52;;;9.00;80.70;;;;;;4961072;28;20561;-67
2021/10/11 09:55:40;;;;;;;23.25;15.57;;;9.10;80.60;;;;;;4959809;28;20035;-67
2021/10/11 09:58:10;;;;;;;21.80;15.55;;;9.20;80.50;;;;;;4959466;28;20035;-67
2021/10/11 10:00:38;;;;;;;19.85;14.70;;;9.20;80.30;;;;;;4959311;28;20045;-67
2021/10/11 10:03:04;;;;;;;20.77;15.10;;;9.40;80.20;;;;;;4960197;28;20027;-67
2021/10/11 10:05:38;;;;;;;20.52;14.48;;;9.40;80.00;;;;;;4957321;28;20039;-66
2021/10/11 10:08:13;;;;;;;20.42;15.07;;;9.50;79.90;;;;;;4958915;28;20032;-67
2021/10/11 10:10:40;;;;;;;21.13;14.88;;;9.60;79.60;;;;;;4962765;28;20058;-67
2021/10/11 10:13:18;;;;;;;23.15;15.57;;;9.70;79.40;;;;;;4958370;28;20035;-66
2021/10/11 10:15:45;;;;;;;23.17;15.32;;;9.80;79.30;;;;;;4959571;28;20038;-67
2021/10/11 10:18:20;;;;;;;24.70;15.50;;;9.90;79.10;;;;;;4957746;28;20034;-67
2021/10/11 10:20:59;;;;;;;23.83;15.88;;;9.90;79.20;;;;;;4957530;28;20070;-66
2021/10/11 10:23:25;;;;;;;20.60;14.73;;;10.00;79.20;;;;;;4959078;28;20081;-67
2021/10/11 10:25:51;;;;;;;22.08;15.52;;;10.10;79.00;;;;;;4965061;28;20042;-67
2021/10/11 10:28:17;;;;;;;22.02;15.15;;;10.20;79.00;;;;;;4957965;28;20279;-67
2021/10/11 10:30:53;;;;;;;20.60;14.82;;;10.20;79.00;;;;;;4958288;28;20134;-66
2021/10/11 10:33:19;;;;;;;21.95;15.70;;;10.30;78.90;;;;;;4958832;28;20946;-67
2021/10/11 10:35:46;;;;;;;20.60;14.50;;;10.40;78.70;;;;;;4957259;28;20032;-67
2021/10/11 10:38:20;;;;;;;21.42;15.02;;;10.50;78.60;;;;;;4956666;28;20039;-67
2021/10/11 10:40:46;;;;;;;20.08;13.80;;;10.50;78.50;;;;;;4956818;28;20035;-67
2021/10/11 10:43:15;;;;;;;23.38;14.98;;;10.60;78.40;;;;;;4957305;28;20027;-66
2021/10/11 10:45:42;;;;;;;21.55;15.00;;;10.70;78.40;;;;;;4958857;28;20510;-67
2021/10/11 10:48:21;;;;;;;22.23;15.23;;;10.80;78.30;;;;;;4959180;28;20126;-67
2021/10/11 10:50:47;;;;;;;20.73;14.32;;;10.90;78.20;;;;;;4972460;28;20109;-67
2021/10/11 10:53:13;;;;;;;20.10;14.35;;;11.00;78.10;;;;;;4958689;28;20119;-67
2021/10/11 10:55:40;;;;;;;18.95;13.75;;;11.10;78.00;;;;;;4959814;28;20122;-67
2021/10/11 10:58:09;;;;;;;18.65;13.35;;;11.20;77.90;;;;;;4956403;28;20036;-67
2021/10/11 11:00:35;;;;;;;19.83;13.55;;;11.20;77.70;;;;;;4957377;28;20034;-67
2021/10/11 11:03:00;;;;;;;19.40;13.77;;;11.30;77.50;;;;;;4964572;28;20403;-67
2021/10/11 11:05:29;;;;;;;18.75;13.65;;;11.40;77.40;;;;;;4958684;28;20070;-67
2021/10/11 11:07:56;;;;;;;18.92;14.02;;;11.50;77.20;;;;;;4973694;28;20028;-67
2021/10/11 11:10:30;;;;;;;17.92;13.63;;;11.70;77.20;;;;;;4958497;28;20084;-66
2021/10/11 11:13:00;;;;;;;21.73;14.07;;;11.70;76.80;;;;;;4959262;28;20081;-67
2021/10/11 11:15:38;;;;;;;19.70;13.23;;;11.90;76.60;;;;;;4958615;28;20409;-67
2021/10/11 11:18:25;;;;;;;18.50;13.15;;;12.00;75.90;;;;;;4957080;28;20264;-66
2021/10/11 11:20:53;;;;;;;18.90;12.85;;;12.10;75.50;;;;;;4954582;28;20035;-66
2021/10/11 11:23:24;;;;;;;17.52;12.98;;;12.20;75.80;;;;;;4958163;28;20989;-67
2021/10/11 11:26:03;;;;;;;16.33;12.15;;;12.30;75.30;;;;;;4955837;28;20035;-67
2021/10/11 11:28:29;;;;;;;16.25;11.88;;;12.40;74.70;;;;;;4954891;28;20035;-67
2021/10/11 11:31:16;;;;;;;17.48;12.60;;;12.50;74.90;;;;;;4955367;28;20502;-68
2021/10/11 11:33:49;;;;;;;16.42;11.90;;;12.60;73.70;;;;;;4954804;28;20034;-67
2021/10/11 11:36:16;;;;;;;14.88;11.23;;;12.70;74.00;;;;;;4956253;28;20036;-67
2021/10/11 11:38:42;;;;;;;15.95;11.88;;;12.80;73.90;;;;;;4955391;28;20180;-66
2021/10/11 11:41:09;;;;;;;15.55;12.00;;;12.90;73.50;;;;;;4956574;28;20184;-67
2021/10/11 11:43:38;;;;;;;17.08;11.65;;;13.00;73.20;;;;;;4956146;28;20030;-67
2021/10/11 11:46:05;;;;;;;15.15;12.15;;;13.00;72.80;;;;;;4958553;28;20071;-67
2021/10/11 11:48:36;;;;;;;15.82;12.10;;;13.10;72.60;;;;;;4957652;28;20079;-68
2021/10/11 11:51:05;;;;;;;13.95;10.95;;;13.20;72.10;;;;;;4960349;28;20039;-68
2021/10/11 11:53:33;;;;;;;15.20;11.70;;;13.30;71.70;;;;;;4960691;28;20532;-67
2021/10/11 11:56:01;;;;;;;14.48;11.25;;;13.30;71.60;;;;;;4963269;28;20065;-67
2021/10/11 11:58:38;;;;;;;15.95;11.20;;;13.40;71.30;;;;;;4962003;28;20123;-67
2021/10/11 12:01:13;;;;;;;16.60;11.02;;;13.50;70.20;;;;;;4962636;28;20129;-68
2021/10/11 12:03:53;;;;;;;;;;;13.50;70.20;;;;;;4963000;28;20035;-68
2021/10/11 12:06:19;;;;;;;12.27;9.98;;;13.60;71.00;;;;;;4962512;28;19922;-67
2021/10/11 12:08:46;;;;;;;15.40;10.50;;;13.70;70.60;;;;;;4962587;28;20065;-67
2021/10/11 12:11:12;;;;;;;15.43;10.65;;;13.70;70.00;;;;;;4960650;28;20039;-67
2021/10/11 12:13:40;;;;;;;13.00;9.40;;;13.70;69.50;;;;;;4961420;28;20042;-67
2021/10/11 12:16:08;;;;;;;13.32;9.80;;;13.80;69.30;;;;;;4976703;28;20503;-67
2021/10/11 12:18:36;;;;;;;14.27;9.82;;;13.80;69.20;;;;;;4962212;28;20039;-67
2021/10/11 12:21:03;;;;;;;13.45;9.40;;;13.80;68.90;;;;;;4960779;28;20461;-67
2021/10/11 12:23:37;;;;;;;17.08;9.38;;;13.90;69.00;;;;;;4960968;28;20123;-66
2021/10/11 12:26:04;;;;;;;14.40;9.87;;;13.90;68.00;;;;;;4960729;28;20038;-67
2021/10/11 12:28:30;;;;;;;11.85;9.43;;;14.00;68.30;;;;;;4961817;28;20466;-67
2021/10/11 12:31:01;;;;;;;11.90;9.05;;;14.00;68.10;;;;;;4961227;28;20506;-68
2021/10/11 12:33:35;;;;;;;11.90;8.93;;;14.00;67.30;;;;;;4961993;28;20437;-67
2021/10/11 12:36:01;;;;;;;11.87;9.43;;;14.00;66.80;;;;;;4961540;28;20508;-68
2021/10/11 12:38:37;;;;;;;12.77;9.65;;;14.10;67.40;;;;;;4960832;28;20300;-68